Time;durP1;ratioP1;P1;durP2;ratioP2;P2;SDS_P1;SDS_P2;PMS_P1;PMS_P2;Temp;Humidity;BMP_temperature;BMP_pressure;BME280_temperature;BME280_humidity;BME280_pressure;Samples;Min_cycle;Max_cycle;Signal;HPM_P1;HPM_P2
2022/01/09 00:00:44;;;;;;;5.15;2.25;;;;;;;-1.29;79.89;93880.97;5102841;27;20039;-76
2022/01/09 00:03:10;;;;;;;4.38;2.00;;;;;;;-1.25;79.59;93878.69;5116233;27;20390;-77
2022/01/09 00:05:36;;;;;;;4.68;2.33;;;;;;;-1.24;80.22;93870.69;5112482;28;20089;-76
2022/01/09 00:08:02;;;;;;;3.97;2.00;;;;;;;-1.18;79.29;93863.81;5107005;27;20113;-76
2022/01/09 00:10:29;;;;;;;4.65;1.80;;;;;;;-1.20;80.04;93870.25;5102340;27;20043;-76
2022/01/09 00:12:55;;;;;;;2.97;1.90;;;;;;;-1.17;79.07;93867.19;5094887;27;20040;-75
2022/01/09 00:15:21;;;;;;;3.80;2.20;;;;;;;-1.15;79.73;93857.41;5090828;28;20044;-75
2022/01/09 00:17:46;;;;;;;4.28;2.08;;;;;;;-1.18;79.74;93847.56;5091484;27;20093;-75
2022/01/09 00:20:12;;;;;;;5.95;2.22;;;;;;;-1.24;81.12;93844.88;5104342;28;20516;-76
2022/01/09 00:22:50;;;;;;;6.80;2.38;;;;;;;-1.12;78.26;93846.59;5105490;28;20032;-76
2022/01/09 00:25:19;;;;;;;4.60;1.98;;;;;;;-1.16;79.12;93835.97;5093910;27;20036;-75
2022/01/09 00:27:45;;;;;;;4.57;2.17;;;;;;;-0.99;78.12;93841.13;5109667;27;20428;-76
2022/01/09 00:30:13;;;;;;;3.55;2.10;;;;;;;-0.97;78.82;93849.41;5115086;27;20039;-75
2022/01/09 00:32:39;;;;;;;4.63;2.20;;;;;;;-1.01;79.19;93837.97;5104414;28;20118;-74
2022/01/09 00:35:06;;;;;;;3.03;1.63;;;;;;;-1.00;78.46;93844.72;5090922;27;20279;-74
2022/01/09 00:37:31;;;;;;;4.28;1.88;;;;;;;-1.02;79.36;93846.75;5095106;27;20092;-76
2022/01/09 00:39:57;;;;;;;3.47;1.75;;;;;;;-0.96;79.39;93845.81;5103139;27;20035;-75
2022/01/09 00:42:22;;;;;;;3.97;1.52;;;;;;;-0.98;78.83;93837.50;5096794;28;20047;-76
2022/01/09 00:44:50;;;;;;;4.35;2.00;;;;;;;-1.02;79.17;93828.69;5104744;27;20134;-76
2022/01/09 00:47:16;;;;;;;3.83;1.92;;;;;;;-1.02;81.71;93836.44;5096729;28;20549;-76
2022/01/09 00:49:41;;;;;;;4.45;1.80;;;;;;;-1.04;80.01;93835.88;5103622;27;20035;-74
2022/01/09 00:52:07;;;;;;;3.60;1.90;;;;;;;-1.11;81.05;93827.50;5090996;28;20101;-76
2022/01/09 00:54:32;;;;;;;2.78;1.70;;;;;;;-0.91;79.76;93843.28;5110953;27;20031;-76
2022/01/09 00:56:58;;;;;;;3.10;1.92;;;;;;;-0.94;81.71;93817.94;5119255;27;20049;-76
2022/01/09 00:59:23;;;;;;;2.92;1.80;;;;;;;-1.09;83.88;93810.78;5098593;28;20035;-75
2022/01/09 01:01:49;;;;;;;5.22;2.10;;;;;;;-1.11;84.22;93799.13;5110143;28;20138;-76
2022/01/09 01:04:15;;;;;;;5.15;2.03;;;;;;;-0.93;82.75;93788.50;5091624;28;20126;-76
2022/01/09 01:06:40;;;;;;;6.53;2.08;;;;;;;-0.84;83.78;93780.34;5089964;28;20520;-76
2022/01/09 01:09:06;;;;;;;4.80;1.88;;;;;;;-0.72;79.22;93805.03;5091068;27;20047;-76
2022/01/09 01:11:32;;;;;;;6.72;1.92;;;;;;;-0.77;81.45;93791.28;5094015;27;20042;-76
2022/01/09 01:13:57;;;;;;;3.58;1.60;;;;;;;-0.71;79.92;93785.16;5092732;28;20042;-76
2022/01/09 01:16:23;;;;;;;3.25;1.70;;;;;;;-0.70;79.75;93786.72;5095936;28;20880;-76
2022/01/09 01:18:49;;;;;;;2.67;1.63;;;;;;;-0.70;79.90;93784.13;5092600;27;20471;-76
2022/01/09 01:21:14;;;;;;;3.45;1.80;;;;;;;-0.70;79.74;93791.88;5101634;28;20036;-76
2022/01/09 01:23:40;;;;;;;5.78;2.00;;;;;;;-0.76;79.70;93788.47;5096359;27;20059;-76
2022/01/09 01:26:07;;;;;;;4.50;2.03;;;;;;;-0.74;80.31;93781.25;5089911;28;20529;-76
2022/01/09 01:28:32;;;;;;;3.80;1.80;;;;;;;-0.69;79.28;93783.09;5099850;28;20051;-76
2022/01/09 01:30:58;;;;;;;5.18;1.80;;;;;;;-0.75;80.03;93778.91;5108964;27;20042;-76
2022/01/09 01:33:24;;;;;;;2.28;1.60;;;;;;;-0.72;80.55;93793.91;5098463;28;20048;-76
2022/01/09 01:35:50;;;;;;;3.00;1.70;;;;;;;-0.71;79.59;93792.91;5089905;28;20086;-76
2022/01/09 01:38:16;;;;;;;3.50;1.80;;;;;;;-0.64;79.31;93795.31;5083023;28;20122;-76
2022/01/09 01:40:41;;;;;;;4.97;1.98;;;;;;;-0.61;80.26;93790.44;5107025;28;20043;-76
2022/01/09 01:43:07;;;;;;;4.07;2.00;;;;;;;-0.72;82.19;93799.06;5116326;27;20408;-76
2022/01/09 01:45:33;;;;;;;4.60;2.25;;;;;;;-0.84;83.69;93788.88;5089968;27;20036;-76
2022/01/09 01:48:06;;;;;;;5.95;2.00;;;;;;;-0.81;85.05;93774.69;5096921;28;20046;-76
2022/01/09 01:50:36;;;;;;;3.35;1.95;;;;;;;-0.94;87.66;93755.94;5103708;27;20047;-76
2022/01/09 01:53:09;;;;;;;3.45;1.83;;;;;;;-0.75;86.45;93759.03;5090002;28;20141;-76
2022/01/09 01:55:37;;;;;;;3.10;2.05;;;;;;;-0.74;87.02;93758.00;5090235;28;20040;-76
2022/01/09 01:58:07;;;;;;;4.10;1.88;;;;;;;-0.70;86.63;93782.31;5089628;28;20055;-76
2022/01/09 02:00:33;;;;;;;3.50;1.83;;;;;;;-0.73;86.90;93776.88;5107475;27;20489;-76
2022/01/09 02:02:59;;;;;;;3.58;1.75;;;;;;;-0.72;87.84;93793.91;5108921;27;20090;-76
2022/01/09 02:05:26;;;;;;;4.03;1.80;;;;;;;-0.74;87.63;93785.63;5103365;27;20541;-76
2022/01/09 02:07:52;;;;;;;4.53;1.90;;;;;;;-0.72;88.19;93799.06;5110778;27;20036;-76
2022/01/09 02:10:19;;;;;;;5.88;2.00;;;;;;;-0.77;88.50;93786.13;5103176;27;20046;-77
2022/01/09 02:12:45;;;;;;;2.85;1.65;;;;;;;-0.79;88.69;93793.31;5110147;28;20043;-77
2022/01/09 02:15:29;;;;;;;3.50;1.80;;;;;;;-0.82;89.35;93789.44;5081581;28;20039;-77
2022/01/09 02:17:55;;;;;;;4.05;1.52;;;;;;;-0.84;89.67;93793.25;5108447;27;20040;-77
2022/01/09 02:20:21;;;;;;;3.03;1.80;;;;;;;-0.88;89.68;93796.34;5093357;28;20116;-77
2022/01/09 02:22:46;;;;;;;4.95;1.83;;;;;;;-0.81;90.06;93808.28;5118070;27;20050;-76
2022/01/09 02:25:14;;;;;;;3.08;1.50;;;;;;;-0.79;91.82;93798.47;5112279;27;20046;-76
2022/01/09 02:27:39;;;;;;;2.08;1.35;;;;;;;-0.79;91.91;93803.63;5102524;27;20043;-76
2022/01/09 02:30:06;;;;;;;2.35;1.40;;;;;;;-0.81;93.24;93775.47;5110496;27;20452;-76
2022/01/09 02:32:32;;;;;;;2.45;1.33;;;;;;;-0.80;95.17;93763.34;5089706;27;20039;-76
2022/01/09 02:34:57;;;;;;;2.00;1.35;;;;;;;-0.80;95.99;93747.84;5091351;27;20044;-76
2022/01/09 02:37:23;;;;;;;4.60;1.73;;;;;;;-0.81;96.89;93764.38;5101699;28;20079;-76
2022/01/09 02:39:49;;;;;;;1.70;1.27;;;;;;;-0.75;97.96;93722.88;5109520;27;20039;-76
2022/01/09 02:42:28;;;;;;;1.98;1.17;;;;;;;-0.74;98.14;93749.47;5101478;27;20044;-76
2022/01/09 02:44:55;;;;;;;2.38;1.45;;;;;;;-0.68;98.80;93738.16;5088962;28;20590;-76
2022/01/09 02:47:21;;;;;;;2.42;1.20;;;;;;;-0.67;99.88;93734.56;5101351;27;20046;-76
2022/01/09 02:49:50;;;;;;;1.42;1.20;;;;;;;-0.65;100.00;93735.09;5115263;27;20119;-76
2022/01/09 02:52:34;;;;;;;1.50;1.10;;;;;;;-0.54;100.00;93739.34;5108061;28;20101;-76
2022/01/09 02:55:12;;;;;;;1.85;1.20;;;;;;;-0.49;100.00;93743.00;5103431;28;20050;-75
2022/01/09 02:57:39;;;;;;;3.72;1.00;;;;;;;-0.46;100.00;93734.75;5107845;28;20044;-76
2022/01/09 03:00:08;;;;;;;1.75;1.10;;;;;;;-0.42;100.00;93730.66;5115167;28;20439;-75
2022/01/09 03:02:33;;;;;;;1.15;0.90;;;;;;;-0.44;100.00;93724.97;5098368;28;20051;-76
2022/01/09 03:04:59;;;;;;;2.25;0.90;;;;;;;-0.46;100.00;93714.88;5106120;28;20258;-75
2022/01/09 03:07:25;;;;;;;1.17;1.00;;;;;;;-0.47;100.00;93712.56;5114408;28;20077;-76
2022/01/09 03:09:50;;;;;;;0.82;0.75;;;;;;;-0.50;100.00;93707.84;5091078;28;20448;-76
2022/01/09 03:12:16;;;;;;;1.17;0.82;;;;;;;-0.51;100.00;93695.97;5088756;28;20040;-75
2022/01/09 03:14:41;;;;;;;1.45;0.95;;;;;;;-0.48;100.00;93690.31;5088203;28;20441;-76
2022/01/09 03:17:06;;;;;;;1.05;0.88;;;;;;;-0.46;100.00;93696.00;5088987;28;20051;-75
2022/01/09 03:19:32;;;;;;;1.20;0.80;;;;;;;-0.47;100.00;93681.53;5105175;28;20508;-76
2022/01/09 03:21:57;;;;;;;1.58;0.90;;;;;;;-0.44;100.00;93675.88;5109327;28;20044;-76
2022/01/09 03:24:23;;;;;;;0.95;0.85;;;;;;;-0.50;100.00;93661.34;5092595;28;20040;-76
2022/01/09 03:26:49;;;;;;;1.42;0.80;;;;;;;-0.50;100.00;93661.34;5105902;28;20040;-76
2022/01/09 03:29:14;;;;;;;1.58;1.05;;;;;;;-0.51;100.00;93667.53;5112561;28;20044;-76
2022/01/09 03:31:39;;;;;;;2.15;0.80;;;;;;;-0.63;100.00;93663.31;5099845;28;20533;-76
2022/01/09 03:34:05;;;;;;;1.27;0.90;;;;;;;-0.82;100.00;93659.50;5103415;28;20546;-75
2022/01/09 03:36:31;;;;;;;1.25;1.00;;;;;;;-0.89;100.00;93659.66;5113833;28;20454;-76
2022/01/09 03:38:56;;;;;;;3.10;1.27;;;;;;;-0.72;100.00;93655.22;5111679;28;20039;-76
2022/01/09 03:41:22;;;;;;;1.83;1.40;;;;;;;-0.58;100.00;93655.59;5120559;28;20051;-76
2022/01/09 03:43:48;;;;;;;2.55;1.80;;;;;;;-0.58;100.00;93659.97;5107444;28;20416;-76
2022/01/09 03:46:13;;;;;;;2.50;1.50;;;;;;;-0.53;100.00;93655.63;5098037;28;20055;-76
2022/01/09 03:48:39;;;;;;;3.33;1.70;;;;;;;-0.47;100.00;93650.53;5099781;28;20040;-76
2022/01/09 03:51:05;;;;;;;3.00;1.73;;;;;;;-0.68;100.00;93660.66;5108742;27;20050;-76
2022/01/09 03:53:31;;;;;;;2.35;1.42;;;;;;;-0.65;100.00;93649.84;5104968;28;20048;-76
2022/01/09 03:55:57;;;;;;;1.42;1.00;;;;;;;-0.47;100.00;93655.69;5105676;27;20401;-76
2022/01/09 03:58:23;;;;;;;0.88;0.80;;;;;;;-0.43;100.00;93659.31;5112969;27;20050;-75
2022/01/09 04:00:49;;;;;;;0.75;0.75;;;;;;;-0.50;100.00;93651.00;5112575;27;20036;-75
2022/01/09 04:03:14;;;;;;;3.03;1.00;;;;;;;-0.54;100.00;93661.81;5104639;28;20509;-75
2022/01/09 04:05:40;;;;;;;1.42;0.90;;;;;;;-0.48;100.00;93670.41;5094159;28;20032;-75
2022/01/09 04:08:05;;;;;;;1.83;0.80;;;;;;;-0.41;100.00;93659.88;5075172;28;20817;-75
2022/01/09 04:10:33;;;;;;;0.93;0.70;;;;;;;-0.39;100.00;93668.16;5112365;28;20046;-74
2022/01/09 04:13:00;;;;;;;3.22;1.02;;;;;;;-0.39;100.00;93662.97;5095548;27;20044;-75
2022/01/09 04:15:28;;;;;;;2.38;0.90;;;;;;;-0.37;100.00;93666.88;5098670;27;20066;-74
2022/01/09 04:17:55;;;;;;;6.65;1.20;;;;;;;-0.39;100.00;93668.94;5117787;27;20044;-75
2022/01/09 04:20:26;;;;;;;0.80;0.60;;;;;;;-0.36;100.00;93688.34;5110600;27;20036;-74
2022/01/09 04:22:52;;;;;;;1.92;1.00;;;;;;;-0.35;100.00;93689.91;5108003;27;20339;-74
2022/01/09 04:25:18;;;;;;;2.15;1.20;;;;;;;-0.31;100.00;93688.38;5091293;28;20043;-74
2022/01/09 04:27:45;;;;;;;0.85;0.70;;;;;;;-0.24;100.00;93681.22;5091529;28;20085;-74
2022/01/09 04:30:11;;;;;;;0.75;0.75;;;;;;;-0.23;100.00;93687.16;5101791;27;20114;-75
2022/01/09 04:32:37;;;;;;;0.75;0.70;;;;;;;-0.25;100.00;93684.81;5116671;27;20072;-74
2022/01/09 04:35:03;;;;;;;1.05;0.70;;;;;;;-0.23;100.00;93693.13;5073325;28;20094;-75
2022/01/09 04:37:29;;;;;;;1.88;0.70;;;;;;;-0.29;100.00;93683.75;5112190;27;20092;-75
2022/01/09 04:39:56;;;;;;;0.50;0.50;;;;;;;-0.21;100.00;93675.53;5106123;27;20044;-74
2022/01/09 04:42:27;;;;;;;1.60;0.70;;;;;;;-0.24;100.00;93676.03;5109669;28;20541;-75
2022/01/09 04:44:53;;;;;;;2.00;0.57;;;;;;;-0.19;100.00;93678.69;5097839;28;20071;-75
2022/01/09 04:47:18;;;;;;;1.65;0.65;;;;;;;-0.13;100.00;93668.34;5091398;28;20040;-75
2022/01/09 04:49:46;;;;;;;1.90;0.60;;;;;;;-0.07;99.42;93664.78;5099467;27;20043;-74
2022/01/09 04:52:17;;;;;;;0.63;0.43;;;;;;;-0.10;99.57;93666.06;5123175;27;20043;-74
2022/01/09 04:54:43;;;;;;;2.15;0.60;;;;;;;-0.13;99.84;93670.94;5109039;27;20043;-75
2022/01/09 04:57:08;;;;;;;0.90;0.68;;;;;;;-0.11;99.15;93668.91;5113198;27;20412;-75
2022/01/09 04:59:34;;;;;;;1.00;0.90;;;;;;;-0.04;98.84;93674.66;5111819;27;20057;-75
2022/01/09 05:01:59;;;;;;;0.80;0.55;;;;;;;0.00;98.35;93678.31;5122509;27;20047;-75
2022/01/09 05:04:25;;;;;;;1.55;0.40;;;;;;;0.01;97.89;93682.41;5096267;27;20105;-74
2022/01/09 05:06:51;;;;;;;2.38;0.77;;;;;;;0.10;96.85;93680.94;5078528;28;20051;-75
2022/01/09 05:09:17;;;;;;;1.58;0.50;;;;;;;0.24;97.02;93675.34;5099366;27;20503;-75
2022/01/09 05:11:42;;;;;;;0.57;0.35;;;;;;;0.59;96.71;93697.25;5098314;27;20046;-75
2022/01/09 05:14:07;;;;;;;0.40;0.40;;;;;;;0.65;97.29;93696.28;5100001;27;20092;-75
2022/01/09 05:16:33;;;;;;;1.77;0.40;;;;;;;1.09;95.95;93706.28;5089523;28;20040;-75
2022/01/09 05:19:04;;;;;;;0.28;0.28;;;;;;;1.29;95.87;93697.03;5090525;27;20394;-75
2022/01/09 05:21:30;;;;;;;1.02;0.40;;;;;;;1.49;95.06;93709.25;5112224;27;20047;-75
2022/01/09 05:23:56;;;;;;;0.28;0.28;;;;;;;1.55;96.13;93724.59;5112047;27;20043;-76
2022/01/09 05:26:21;;;;;;;0.28;0.20;;;;;;;1.68;96.25;93712.94;5101021;28;20413;-75
2022/01/09 05:28:47;;;;;;;0.68;0.40;;;;;;;1.70;96.33;93715.28;5108104;27;20119;-77
2022/01/09 05:31:13;;;;;;;1.35;0.47;;;;;;;1.74;96.26;93705.94;5105992;27;20044;-76
2022/01/09 05:33:38;;;;;;;0.50;0.45;;;;;;;1.66;96.83;93699.44;5090259;28;20032;-77
2022/01/09 05:36:04;;;;;;;0.20;0.20;;;;;;;1.70;96.98;93707.50;5090802;28;20036;-77
2022/01/09 05:38:30;;;;;;;0.40;0.20;;;;;;;1.82;95.50;93708.00;5098802;27;20074;-77
2022/01/09 05:40:56;;;;;;;1.85;0.57;;;;;;;1.93;94.92;93711.41;5113141;27;20048;-77
2022/01/09 05:43:21;;;;;;;0.55;0.55;;;;;;;1.93;95.25;93718.41;5091405;28;20074;-77
2022/01/09 05:45:47;;;;;;;0.40;0.40;;;;;;;1.89;95.12;93718.91;5092015;28;20047;-78
2022/01/09 05:48:13;;;;;;;0.65;0.40;;;;;;;1.93;94.82;93710.63;5094816;28;20744;-78
2022/01/09 05:50:38;;;;;;;1.77;0.30;;;;;;;1.96;94.31;93717.88;5099447;27;20046;-78
2022/01/09 05:53:04;;;;;;;0.73;0.35;;;;;;;1.86;94.37;93709.06;5096737;27;20577;-78
2022/01/09 05:55:32;;;;;;;0.60;0.17;;;;;;;2.01;93.19;93702.31;5108326;27;20625;-77
2022/01/09 05:57:58;;;;;;;2.08;0.55;;;;;;;2.05;92.33;93716.31;5118094;27;20039;-78
2022/01/09 06:00:24;;;;;;;1.17;0.30;;;;;;;1.98;93.45;93715.81;5101691;28;20584;-77
2022/01/09 06:02:49;;;;;;;0.40;0.30;;;;;;;2.09;92.14;93719.97;5093222;27;20036;-77
2022/01/09 06:05:15;;;;;;;0.60;0.50;;;;;;;1.96;93.07;93718.66;5094830;28;20040;-78
2022/01/09 06:07:42;;;;;;;0.28;0.28;;;;;;;2.06;92.26;93712.69;5092639;28;20044;-78
2022/01/09 06:10:09;;;;;;;1.25;0.30;;;;;;;2.05;91.81;93718.91;5092301;28;20044;-78
2022/01/09 06:12:35;;;;;;;1.00;0.30;;;;;;;2.17;90.83;93719.44;5090652;28;20383;-77
2022/01/09 06:15:02;;;;;;;0.60;0.40;;;;;;;2.22;90.54;93722.03;5090640;28;20050;-78
2022/01/09 06:17:27;;;;;;;0.32;0.30;;;;;;;2.25;90.10;93729.28;5100161;27;20067;-78
2022/01/09 06:19:52;;;;;;;0.13;0.13;;;;;;;2.35;88.80;93725.13;5123444;27;20118;-78
2022/01/09 06:22:18;;;;;;;0.30;0.30;;;;;;;2.27;90.82;93723.06;5101406;28;20109;-78
2022/01/09 06:24:46;;;;;;;0.13;0.13;;;;;;;2.13;91.39;93739.16;5090832;28;20032;-78
2022/01/09 06:27:13;;;;;;;0.32;0.17;;;;;;;2.13;91.93;93749.53;5082418;28;20039;-77
2022/01/09 06:29:39;;;;;;;0.47;0.40;;;;;;;2.11;93.53;93754.19;5118510;27;20043;-76
2022/01/09 06:32:06;;;;;;;0.68;0.30;;;;;;;2.18;93.68;93772.88;5115917;27;20259;-76
2022/01/09 06:34:31;;;;;;;0.50;0.50;;;;;;;2.00;96.06;93765.63;5105917;28;20105;-77
2022/01/09 06:36:57;;;;;;;1.00;0.90;;;;;;;1.82;97.46;93759.88;5107371;28;20060;-76
2022/01/09 06:39:23;;;;;;;1.15;0.60;;;;;;;1.69;98.99;93765.56;5102682;28;20128;-76
2022/01/09 06:41:48;;;;;;;1.45;1.00;;;;;;;1.63;99.76;93758.81;5091283;28;20044;-76
2022/01/09 06:44:14;;;;;;;3.50;1.60;;;;;;;1.56;100.00;93762.41;5089204;28;20048;-77
2022/01/09 06:46:39;;;;;;;0.63;0.40;;;;;;;1.50;100.00;93763.44;5089650;28;20047;-77
2022/01/09 06:49:05;;;;;;;0.40;0.40;;;;;;;1.51;99.42;93770.19;5083676;28;20040;-76
2022/01/09 06:51:30;;;;;;;0.22;0.17;;;;;;;1.64;98.17;93778.50;5098176;28;20151;-76
2022/01/09 06:53:56;;;;;;;1.35;0.30;;;;;;;1.54;100.00;93780.06;5107649;27;20044;-76
2022/01/09 06:56:21;;;;;;;0.47;0.30;;;;;;;1.54;99.67;93785.25;5114286;27;20754;-75
2022/01/09 06:58:47;;;;;;;0.10;0.10;;;;;;;1.58;99.21;93805.47;5101923;28;20065;-75
2022/01/09 07:01:12;;;;;;;0.63;0.15;;;;;;;1.59;99.50;93799.25;5093629;28;20044;-74
2022/01/09 07:03:38;;;;;;;0.20;0.20;;;;;;;1.58;99.77;93805.47;5078740;28;20039;-75
2022/01/09 07:06:04;;;;;;;0.93;0.17;;;;;;;1.58;100.00;93815.84;5088238;28;20119;-76
2022/01/09 07:08:33;;;;;;;2.42;0.30;;;;;;;1.50;100.00;93830.84;5089674;28;20052;-76
2022/01/09 07:10:59;;;;;;;0.45;0.30;;;;;;;1.49;100.00;93829.28;5090466;28;20036;-75
2022/01/09 07:13:25;;;;;;;0.20;0.20;;;;;;;1.48;100.00;93837.31;5116639;28;20044;-76
2022/01/09 07:15:50;;;;;;;0.32;0.32;;;;;;;1.46;100.00;93834.97;5106701;28;20046;-76
2022/01/09 07:18:16;;;;;;;0.10;0.10;;;;;;;1.55;99.47;93838.66;5109078;28;20044;-76
2022/01/09 07:20:41;;;;;;;0.10;0.10;;;;;;;1.52;99.68;93849.53;5087203;28;20409;-76
2022/01/09 07:23:07;;;;;;;0.98;0.45;;;;;;;1.50;100.00;93856.78;5103039;28;20066;-76
2022/01/09 07:25:32;;;;;;;0.20;0.20;;;;;;;1.44;100.00;93868.16;5098210;27;20825;-76
2022/01/09 07:27:58;;;;;;;0.55;0.38;;;;;;;1.36;100.00;93866.03;5076657;27;20456;-76
2022/01/09 07:30:27;;;;;;;0.57;0.40;;;;;;;1.31;100.00;93879.00;5096666;28;20051;-76
2022/01/09 07:32:52;;;;;;;0.43;0.35;;;;;;;1.30;100.00;93880.00;5118328;27;20032;-76
2022/01/09 07:35:18;;;;;;;0.30;0.25;;;;;;;1.16;100.00;93883.03;5104248;27;20048;-76
2022/01/09 07:37:44;;;;;;;0.73;0.47;;;;;;;1.10;100.00;93894.38;5107634;27;20425;-76
2022/01/09 07:40:10;;;;;;;3.40;0.40;;;;;;;1.00;100.00;93909.88;5097793;27;20036;-75
2022/01/09 07:42:35;;;;;;;0.75;0.40;;;;;;;1.08;100.00;93912.00;5121536;27;20043;-77
2022/01/09 07:45:01;;;;;;;0.45;0.30;;;;;;;0.97;100.00;93905.19;5117992;27;20043;-75
2022/01/09 07:47:27;;;;;;;0.25;0.25;;;;;;;0.94;100.00;93910.88;5087198;28;20048;-76
2022/01/09 07:49:52;;;;;;;0.73;0.50;;;;;;;0.92;100.00;93912.91;5092394;27;20043;-75
2022/01/09 07:52:18;;;;;;;0.30;0.30;;;;;;;0.99;100.00;93945.38;5110610;28;20493;-76
2022/01/09 07:54:43;;;;;;;0.38;0.38;;;;;;;0.91;100.00;93939.88;5106830;28;20068;-77
2022/01/09 07:57:09;;;;;;;0.38;0.38;;;;;;;0.90;100.00;93940.88;5086020;28;20104;-76
2022/01/09 07:59:34;;;;;;;1.17;0.73;;;;;;;0.83;100.00;93947.06;5113517;27;20044;-76
2022/01/09 08:02:00;;;;;;;0.47;0.40;;;;;;;0.74;100.00;93956.28;5116895;27;20040;-77
2022/01/09 08:04:26;;;;;;;2.55;0.47;;;;;;;0.80;100.00;93962.28;5104378;27;20043;-76
2022/01/09 08:06:51;;;;;;;0.57;0.45;;;;;;;0.77;100.00;93966.16;5123925;27;20471;-76
2022/01/09 08:09:16;;;;;;;0.43;0.43;;;;;;;0.75;100.00;93960.44;5097875;27;20075;-76
2022/01/09 08:11:42;;;;;;;0.50;0.38;;;;;;;0.91;100.00;93968.34;5094520;28;20032;-75
2022/01/09 08:14:08;;;;;;;0.50;0.50;;;;;;;0.88;100.00;93984.34;5108546;27;20035;-74
2022/01/09 08:16:33;;;;;;;1.73;0.65;;;;;;;0.75;100.00;93980.34;5103354;28;20036;-77
2022/01/09 08:18:59;;;;;;;0.28;0.28;;;;;;;0.81;100.00;93985.34;5102855;28;20047;-77
2022/01/09 08:21:24;;;;;;;0.28;0.25;;;;;;;0.80;100.00;94001.91;5101837;27;20036;-77
2022/01/09 08:23:50;;;;;;;2.05;0.57;;;;;;;0.75;100.00;93999.28;5098889;28;20051;-74
2022/01/09 08:26:17;;;;;;;0.70;0.30;;;;;;;0.89;100.00;93991.09;5106685;28;20189;-73
2022/01/09 08:28:46;;;;;;;3.75;0.80;;;;;;;0.88;100.00;94008.47;5100952;27;20396;-72
2022/01/09 08:31:12;;;;;;;1.23;0.45;;;;;;;0.95;100.00;94011.63;5089995;28;20043;-77
2022/01/09 08:33:38;;;;;;;0.73;0.47;;;;;;;0.92;100.00;94022.50;5073118;28;20044;-76
2022/01/09 08:36:05;;;;;;;0.28;0.20;;;;;;;0.99;100.00;94022.28;5097903;27;20063;-76
2022/01/09 08:38:30;;;;;;;1.17;0.77;;;;;;;0.92;100.00;94032.84;5095123;27;20048;-74
2022/01/09 08:40:56;;;;;;;0.80;0.60;;;;;;;1.01;100.00;94026.19;5109708;27;20570;-76
2022/01/09 08:43:22;;;;;;;2.95;0.50;;;;;;;1.02;100.00;94037.31;5109777;28;20040;-75
2022/01/09 08:45:48;;;;;;;0.50;0.50;;;;;;;1.04;100.00;94032.69;5103234;27;20447;-75
2022/01/09 08:48:15;;;;;;;1.85;1.00;;;;;;;1.02;100.00;94042.50;5091379;28;20046;-76
2022/01/09 08:50:40;;;;;;;0.38;0.38;;;;;;;1.16;100.00;94048.84;5103357;28;20036;-76
2022/01/09 08:53:06;;;;;;;0.98;0.60;;;;;;;1.08;100.00;94051.13;5095017;28;20539;-75
2022/01/09 08:55:31;;;;;;;0.95;0.50;;;;;;;1.19;100.00;94048.38;5105198;27;20065;-75
2022/01/09 08:57:57;;;;;;;0.75;0.50;;;;;;;1.10;100.00;94055.03;5098493;28;20480;-76
2022/01/09 09:00:23;;;;;;;0.55;0.40;;;;;;;1.16;100.00;94054.03;5107884;27;20397;-76
2022/01/09 09:02:49;;;;;;;1.88;0.90;;;;;;;1.19;100.00;94063.94;5133919;27;20039;-76
2022/01/09 09:05:15;;;;;;;0.88;0.60;;;;;;;1.27;100.00;94069.69;5112390;27;20036;-75
2022/01/09 09:07:40;;;;;;;0.82;0.70;;;;;;;1.26;100.00;94062.94;5114835;28;20046;-78
2022/01/09 09:10:07;;;;;;;2.22;0.70;;;;;;;1.23;100.00;94063.44;5094154;28;20044;-79
2022/01/09 09:12:33;;;;;;;2.17;0.68;;;;;;;1.24;100.00;94085.75;5096027;28;20511;-76
2022/01/09 09:15:00;;;;;;;1.27;0.60;;;;;;;1.23;100.00;94089.34;5095213;28;20404;-81
2022/01/09 09:17:27;;;;;;;0.50;0.50;;;;;;;1.18;100.00;94093.47;5094515;28;20050;-83
2022/01/09 09:19:53;;;;;;;1.10;0.50;;;;;;;1.30;100.00;94095.13;5102584;28;20043;-76
2022/01/09 09:22:18;;;;;;;0.73;0.43;;;;;;;1.17;100.00;94099.66;5110878;28;20039;-76
2022/01/09 09:24:45;;;;;;;0.47;0.45;;;;;;;1.26;100.00;94109.59;5122951;27;20046;-76
2022/01/09 09:27:11;;;;;;;0.95;0.85;;;;;;;1.20;100.00;94112.13;5104865;28;20043;-75
2022/01/09 09:29:36;;;;;;;1.33;0.73;;;;;;;1.17;100.00;94110.03;5092282;27;20044;-77
2022/01/09 09:32:02;;;;;;;1.55;0.75;;;;;;;1.11;100.00;94118.78;5092693;28;20779;-76
2022/01/09 09:34:28;;;;;;;2.30;1.17;;;;;;;1.17;100.00;94117.81;5080729;28;20050;-74
2022/01/09 09:36:54;;;;;;;0.98;0.75;;;;;;;1.15;100.00;94130.22;5086978;28;20039;-76
2022/01/09 09:39:20;;;;;;;1.13;0.75;;;;;;;1.17;100.00;94130.75;5098027;27;20058;-75
2022/01/09 09:41:46;;;;;;;0.88;0.60;;;;;;;1.16;100.00;94136.97;5072426;28;20052;-75
2022/01/09 09:44:12;;;;;;;0.77;0.65;;;;;;;1.30;100.00;94146.97;5098658;28;20043;-74
2022/01/09 09:46:39;;;;;;;0.98;0.85;;;;;;;1.29;100.00;94146.16;5108912;28;20043;-75
2022/01/09 09:49:05;;;;;;;2.92;1.00;;;;;;;1.42;100.00;94150.16;5105497;28;20040;-75
2022/01/09 09:51:31;;;;;;;1.55;0.98;;;;;;;1.41;100.00;94159.00;5098997;28;20044;-74
2022/01/09 09:53:58;;;;;;;2.25;0.80;;;;;;;1.34;100.00;94153.22;5104272;28;20629;-75
2022/01/09 09:56:24;;;;;;;1.95;1.08;;;;;;;1.36;100.00;94151.94;5101548;27;20047;-75
2022/01/09 09:58:51;;;;;;;3.15;0.95;;;;;;;1.40;100.00;94160.03;5108640;28;20042;-74
2022/01/09 10:01:43;;;;;;;2.38;1.00;;;;;;;1.44;100.00;94163.69;5110024;28;20059;-75
2022/01/09 10:04:09;;;;;;;1.75;1.05;;;;;;;1.40;100.00;94160.03;5100994;28;20107;-75
2022/01/09 10:06:44;;;;;;;1.45;1.15;;;;;;;1.32;100.00;94169.03;5110113;27;20429;-75
2022/01/09 10:09:13;;;;;;;2.40;0.90;;;;;;;1.30;100.00;94162.50;5098866;28;20054;-74
2022/01/09 10:11:50;;;;;;;1.90;0.80;;;;;;;1.34;100.00;94166.97;5102771;28;20039;-75
2022/01/09 10:14:20;;;;;;;1.15;0.50;;;;;;;1.30;100.00;94180.66;5097352;28;20040;-74
2022/01/09 10:17:06;;;;;;;1.63;0.95;;;;;;;1.28;100.00;94175.72;5091864;28;20040;-75
2022/01/09 10:19:45;;;;;;;0.95;0.73;;;;;;;1.19;100.00;94180.56;5110183;28;20126;-75
2022/01/09 10:22:30;;;;;;;1.98;1.17;;;;;;;1.25;100.00;94185.78;5116095;27;20051;-74
2022/01/09 10:24:57;;;;;;;0.77;0.73;;;;;;;1.29;100.00;94181.66;5082998;28;20233;-75
2022/01/09 10:27:28;;;;;;;2.42;1.00;;;;;;;1.20;100.00;94176.91;5101960;27;20108;-75
2022/01/09 10:29:54;;;;;;;2.53;1.20;;;;;;;1.25;100.00;94190.97;5129035;27;20039;-76
2022/01/09 10:32:20;;;;;;;2.30;0.98;;;;;;;1.34;100.00;94194.69;5086550;28;20044;-75
2022/01/09 10:35:04;;;;;;;2.22;1.10;;;;;;;1.34;100.00;94194.69;5092080;28;20040;-75
2022/01/09 10:37:29;;;;;;;3.90;1.50;;;;;;;1.26;100.00;94190.72;5072024;28;20044;-78
2022/01/09 10:40:00;;;;;;;2.72;1.30;;;;;;;1.42;100.00;94209.78;5081980;28;20112;-77
2022/01/09 10:42:26;;;;;;;1.90;1.08;;;;;;;1.46;100.00;94186.78;5098444;27;20054;-76
2022/01/09 10:44:51;;;;;;;0.82;0.38;;;;;;;1.55;99.52;94196.47;5103440;27;20181;-75
2022/01/09 10:47:17;;;;;;;3.58;1.25;;;;;;;1.55;99.61;94191.28;5101340;28;20069;-76
2022/01/09 10:49:49;;;;;;;3.60;1.15;;;;;;;1.72;100.00;94196.38;5095136;28;20036;-74
2022/01/09 10:52:22;;;;;;;4.72;1.63;;;;;;;1.81;100.00;94199.31;5088845;28;20047;-75
2022/01/09 10:54:50;;;;;;;1.05;0.65;;;;;;;1.80;99.06;94202.91;5090900;28;20469;-75
2022/01/09 10:57:26;;;;;;;3.55;1.10;;;;;;;1.88;98.09;94199.88;5095336;28;20043;-76
2022/01/09 10:59:53;;;;;;;1.45;1.00;;;;;;;2.05;96.16;94198.97;5107012;28;20573;-75
2022/01/09 11:02:19;;;;;;;2.33;1.15;;;;;;;2.29;96.13;94193.44;5105663;28;20046;-75
2022/01/09 11:04:47;;;;;;;2.70;1.20;;;;;;;2.33;95.31;94202.28;5108792;28;20036;-80
2022/01/09 11:07:13;;;;;;;3.15;1.30;;;;;;;2.30;94.62;94202.78;5092064;28;20124;-80
2022/01/09 11:09:42;;;;;;;4.95;1.25;;;;;;;2.32;94.69;94203.31;5107736;28;20036;-78
2022/01/09 11:12:08;;;;;;;3.58;1.33;;;;;;;2.25;96.63;94214.69;5094426;28;20113;-77
2022/01/09 11:14:41;;;;;;;2.33;0.93;;;;;;;2.41;94.59;94217.41;5109707;28;20032;-78
2022/01/09 11:17:08;;;;;;;3.88;1.70;;;;;;;2.43;93.18;94210.94;5098230;28;20039;-78
2022/01/09 11:19:33;;;;;;;3.67;1.30;;;;;;;2.37;90.90;94213.72;5113869;28;20042;-78
2022/01/09 11:22:03;;;;;;;1.92;1.02;;;;;;;2.77;90.95;94209.81;5103782;28;20494;-76
2022/01/09 11:24:57;;;;;;;3.78;1.75;;;;;;;2.65;90.65;94206.66;5096438;28;20516;-80
2022/01/09 11:28:12;;;;;;;4.35;1.67;;;;;;;3.04;89.16;94219.31;5111743;28;20032;-76
2022/01/09 11:31:01;;;;;;;2.95;1.60;;;;;;;3.01;88.09;94222.44;5041923;28;20045;-79
2022/01/09 11:33:36;;;;;;;1.77;0.98;;;;;;;2.64;88.75;94212.88;5049587;28;20072;-77